createdAt,value
2023-01-06T00:00:31.854Z,1.03
2023-01-06T00:02:58.391Z,0.80
2023-01-06T00:05:25.067Z,0.87
2023-01-06T00:07:52.372Z,1.07
2023-01-06T00:10:19.448Z,1.17
2023-01-06T00:12:47.376Z,0.60
2023-01-06T00:15:14.473Z,0.60
2023-01-06T00:17:41.321Z,0.70
2023-01-06T00:20:08.620Z,1.20
2023-01-06T00:22:35.092Z,2.53
2023-01-06T00:25:01.653Z,1.93
2023-01-06T00:27:28.024Z,1.73
2023-01-06T00:29:57.727Z,1.17
2023-01-06T00:32:24.431Z,1.43
2023-01-06T00:34:50.849Z,0.87
2023-01-06T00:37:17.198Z,0.70
2023-01-06T00:39:43.554Z,1.30
2023-01-06T00:42:10.040Z,0.70
2023-01-06T00:44:40.196Z,0.73
2023-01-06T00:47:11.287Z,1.03
2023-01-06T00:49:37.727Z,0.70
2023-01-06T00:52:04.468Z,0.50
2023-01-06T00:54:31.005Z,0.63
2023-01-06T00:56:57.419Z,1.23
2023-01-06T00:59:25.684Z,0.50
2023-01-06T01:01:54.761Z,0.93
2023-01-06T01:04:23.287Z,0.40
2023-01-06T01:06:50.703Z,0.73
2023-01-06T01:09:22.081Z,0.30
2023-01-06T01:12:08.228Z,0.50
2023-01-06T01:14:35.348Z,0.60
2023-01-06T01:17:01.809Z,0.40
2023-01-06T01:19:28.975Z,0.70
2023-01-06T01:21:55.619Z,0.20
2023-01-06T01:24:22.546Z,0.33
2023-01-06T01:26:49.399Z,0.50
2023-01-06T01:29:17.691Z,0.90
2023-01-06T01:31:44.487Z,0.30
2023-01-06T01:34:12.887Z,0.43
2023-01-06T01:36:44.527Z,0.50
2023-01-06T01:39:12.723Z,0.30
2023-01-06T01:41:39.357Z,0.53
2023-01-06T01:44:43.215Z,0.60
2023-01-06T01:47:13.543Z,0.40
2023-01-06T01:49:42.494Z,0.40
2023-01-06T01:52:11.004Z,0.57
2023-01-06T01:54:39.107Z,0.30
2023-01-06T01:57:10.150Z,0.30
2023-01-06T01:59:38.625Z,0.37
2023-01-06T02:02:05.199Z,0.20
2023-01-06T02:04:36.662Z,0.20
2023-01-06T02:07:04.555Z,0.20
2023-01-06T02:09:37.105Z,0.30
2023-01-06T02:12:04.083Z,0.30
2023-01-06T02:14:30.484Z,0.20
2023-01-06T02:17:34.582Z,0.30
2023-01-06T02:20:34.685Z,0.30
2023-01-06T02:23:16.191Z,0.20
2023-01-06T02:26:29.972Z,0.20
2023-01-06T02:29:30.111Z,0.30
2023-01-06T02:32:10.273Z,0.20
2023-01-06T02:35:00.721Z,0.30
2023-01-06T02:37:52.028Z,0.43
2023-01-06T02:40:35.572Z,0.30
2023-01-06T02:43:40.384Z,0.20
2023-01-06T02:46:18.694Z,0.30
2023-01-06T02:48:56.980Z,0.60
2023-01-06T02:51:50.448Z,0.30
2023-01-06T02:54:42.571Z,0.30
2023-01-06T02:57:19.110Z,0.20
2023-01-06T03:00:02.498Z,0.30
2023-01-06T03:02:31.961Z,0.20
2023-01-06T03:05:01.474Z,0.27
2023-01-06T03:07:30.981Z,0.40
2023-01-06T03:10:00.319Z,0.20
2023-01-06T03:12:45.672Z,0.30
2023-01-06T03:15:12.161Z,0.23
2023-01-06T03:17:38.598Z,0.20
2023-01-06T03:20:05.607Z,0.20
2023-01-06T03:22:35.437Z,0.50
2023-01-06T03:25:02.101Z,0.20
2023-01-06T03:27:28.486Z,0.20
2023-01-06T03:29:55.219Z,0.20
2023-01-06T03:32:43.133Z,0.20
2023-01-06T03:35:28.313Z,0.30
2023-01-06T03:38:13.960Z,0.20
2023-01-06T03:40:53.180Z,0.27
2023-01-06T03:43:35.131Z,0.20
2023-01-06T03:46:34.680Z,0.20
2023-01-06T03:49:28.027Z,0.30
2023-01-06T03:51:58.550Z,0.20
2023-01-06T03:54:32.332Z,0.20
2023-01-06T03:57:04.650Z,0.20
2023-01-06T03:59:35.618Z,0.30
2023-01-06T04:02:05.511Z,0.20
2023-01-06T04:04:31.939Z,0.30
2023-01-06T04:06:58.333Z,0.20
2023-01-06T04:09:24.768Z,0.30
2023-01-06T04:12:09.861Z,0.20
2023-01-06T04:14:36.339Z,0.20
2023-01-06T04:17:02.744Z,0.20
2023-01-06T04:19:29.159Z,0.20
2023-01-06T04:21:55.598Z,0.20
2023-01-06T04:24:22.010Z,0.30
2023-01-06T04:26:48.444Z,0.30
2023-01-06T04:29:14.837Z,0.30
2023-01-06T04:31:41.291Z,0.30
2023-01-06T04:34:07.749Z,0.90
2023-01-06T04:36:34.291Z,0.20
2023-01-06T04:39:01.748Z,0.50
2023-01-06T04:41:28.417Z,0.20
2023-01-06T04:43:57.824Z,0.30
2023-01-06T04:46:24.428Z,0.20
2023-01-06T04:48:50.788Z,0.40
2023-01-06T04:51:17.222Z,0.40
2023-01-06T04:53:43.646Z,0.20
2023-01-06T04:56:12.116Z,0.20
2023-01-06T04:58:39.261Z,0.20
2023-01-06T05:01:11.836Z,0.30
2023-01-06T05:03:39.717Z,0.30
2023-01-06T05:06:11.337Z,0.50
2023-01-06T05:08:39.475Z,0.30
2023-01-06T05:11:09.009Z,0.30
2023-01-06T05:13:36.618Z,1.60
2023-01-06T05:16:07.944Z,0.30
2023-01-06T05:18:34.747Z,0.50
2023-01-06T05:21:01.489Z,0.30
2023-01-06T05:23:27.987Z,0.30
2023-01-06T05:25:54.643Z,1.00
2023-01-06T05:28:21.473Z,0.20
2023-01-06T05:30:48.449Z,0.20
2023-01-06T05:33:15.180Z,0.30
2023-01-06T05:35:41.650Z,0.30
2023-01-06T05:38:08.063Z,0.60
2023-01-06T05:40:35.488Z,0.20
2023-01-06T05:43:01.936Z,0.20
2023-01-06T05:45:28.418Z,0.20
2023-01-06T05:47:54.919Z,0.20
2023-01-06T05:50:21.357Z,0.50
2023-01-06T05:52:47.754Z,0.20
2023-01-06T05:55:14.177Z,0.20
2023-01-06T05:57:40.569Z,0.20
2023-01-06T06:00:08.320Z,0.20
2023-01-06T06:02:34.813Z,0.40
2023-01-06T06:05:01.255Z,0.30
2023-01-06T06:07:27.663Z,0.40
2023-01-06T06:09:54.051Z,0.30
2023-01-06T06:12:20.477Z,0.30
2023-01-06T06:14:46.852Z,0.20
2023-01-06T06:17:13.285Z,0.20
2023-01-06T06:19:39.652Z,0.70
2023-01-06T06:22:06.086Z,0.20
2023-01-06T06:24:32.547Z,0.30
2023-01-06T06:26:58.946Z,0.30
2023-01-06T06:29:25.299Z,0.20
2023-01-06T06:31:51.707Z,0.50
2023-01-06T06:34:18.101Z,0.20
2023-01-06T06:36:44.468Z,0.20
2023-01-06T06:39:10.850Z,0.20
2023-01-06T06:41:37.284Z,0.30
2023-01-06T06:44:04.113Z,0.30
2023-01-06T06:46:30.768Z,0.30
2023-01-06T06:48:57.110Z,0.33
2023-01-06T06:51:24.585Z,0.30
2023-01-06T06:53:51.234Z,0.40
2023-01-06T06:56:19.701Z,0.20
2023-01-06T06:58:46.166Z,0.30
2023-01-06T07:01:15.702Z,0.40
2023-01-06T07:03:42.506Z,0.27
2023-01-06T07:06:14.369Z,0.40
2023-01-06T07:08:45.575Z,0.40
2023-01-06T07:11:12.362Z,0.40
2023-01-06T07:13:38.792Z,0.30
2023-01-06T07:16:06.248Z,0.30
2023-01-06T07:18:32.749Z,0.40
2023-01-06T07:20:59.281Z,0.47
2023-01-06T07:23:25.907Z,0.20
2023-01-06T07:25:53.918Z,0.30
2023-01-06T07:28:20.587Z,0.30
2023-01-06T07:30:47.065Z,0.40
2023-01-06T07:33:13.514Z,0.70
2023-01-06T07:35:39.924Z,0.93
2023-01-06T07:38:07.378Z,0.40
2023-01-06T07:40:34.854Z,0.20
2023-01-06T07:43:10.113Z,0.70
2023-01-06T07:45:36.956Z,0.30
2023-01-06T07:48:04.420Z,0.30
2023-01-06T07:50:31.648Z,0.20
2023-01-06T07:52:59.689Z,0.30
2023-01-06T07:55:26.092Z,0.20
2023-01-06T07:57:52.876Z,0.67
2023-01-06T08:00:19.455Z,0.90
2023-01-06T08:02:45.881Z,0.30
2023-01-06T08:05:12.389Z,0.30
2023-01-06T08:07:38.761Z,0.50
2023-01-06T08:10:05.691Z,0.30
2023-01-06T08:12:32.118Z,0.47
2023-01-06T08:14:58.484Z,0.20
2023-01-06T08:17:24.828Z,0.20
2023-01-06T08:19:51.229Z,0.30
2023-01-06T08:22:17.645Z,0.77
2023-01-06T08:24:44.045Z,0.20
2023-01-06T08:27:10.483Z,0.30
2023-01-06T08:29:36.887Z,0.30
2023-01-06T08:32:10.312Z,0.20
2023-01-06T08:34:37.616Z,0.50
2023-01-06T08:37:04.070Z,0.30
2023-01-06T08:39:30.628Z,0.30
2023-01-06T08:41:57.024Z,0.27
2023-01-06T08:44:23.504Z,0.30
2023-01-06T08:46:49.895Z,0.43
2023-01-06T08:49:16.286Z,0.30
2023-01-06T08:51:42.727Z,0.30
2023-01-06T08:54:09.192Z,0.23
2023-01-06T08:56:35.950Z,0.20
2023-01-06T08:59:04.294Z,0.20
2023-01-06T09:01:36.165Z,0.60
2023-01-06T09:04:05.555Z,0.30
2023-01-06T09:06:32.202Z,0.20
2023-01-06T09:08:58.641Z,0.30
2023-01-06T09:11:25.979Z,0.20
2023-01-06T09:13:52.913Z,0.20
2023-01-06T09:16:20.509Z,0.20
2023-01-06T09:18:51.429Z,0.30
2023-01-06T09:21:22.887Z,0.20
2023-01-06T09:23:49.438Z,0.60
2023-01-06T09:26:17.509Z,0.30
2023-01-06T09:28:44.098Z,0.30
2023-01-06T09:31:10.783Z,0.20
2023-01-06T09:33:37.538Z,0.20
2023-01-06T09:36:04.222Z,0.73
2023-01-06T09:38:30.607Z,0.20
2023-01-06T09:40:59.929Z,0.50
2023-01-06T09:43:51.225Z,0.30
2023-01-06T09:46:22.849Z,0.40
2023-01-06T09:49:20.166Z,0.80
2023-01-06T09:51:46.687Z,0.30
2023-01-06T09:54:22.820Z,0.30
2023-01-06T09:56:58.635Z,0.20
2023-01-06T09:59:31.531Z,0.33
2023-01-06T10:02:00.823Z,0.20
2023-01-06T10:04:30.066Z,0.60
2023-01-06T10:07:15.318Z,0.30
2023-01-06T10:09:49.239Z,0.30
2023-01-06T10:12:30.636Z,0.30
2023-01-06T10:15:05.585Z,0.20
2023-01-06T10:17:47.956Z,0.60
2023-01-06T10:20:30.413Z,0.30
2023-01-06T10:23:07.477Z,0.50
2023-01-06T10:25:36.918Z,0.30
2023-01-06T10:28:22.654Z,0.40
2023-01-06T10:30:52.814Z,0.20
2023-01-06T10:33:41.707Z,0.37
2023-01-06T10:36:13.888Z,0.40
2023-01-06T10:39:08.930Z,0.30
2023-01-06T10:41:53.580Z,0.20
2023-01-06T10:44:20.299Z,0.30
2023-01-06T10:46:49.360Z,0.47
2023-01-06T10:49:18.363Z,0.37
2023-01-06T10:51:54.554Z,0.30
2023-01-06T10:54:27.512Z,0.23
2023-01-06T10:57:00.089Z,0.20
2023-01-06T10:59:26.453Z,0.60
2023-01-06T11:01:58.270Z,0.27
2023-01-06T11:04:27.687Z,0.97
2023-01-06T11:07:02.841Z,0.27
2023-01-06T11:09:43.237Z,0.20
2023-01-06T11:12:28.897Z,0.30
2023-01-06T11:14:59.559Z,0.30
2023-01-06T11:17:29.000Z,0.20
2023-01-06T11:20:18.554Z,0.57
2023-01-06T11:22:45.271Z,0.20
2023-01-06T11:25:20.694Z,0.93
2023-01-06T11:28:11.950Z,0.43
2023-01-06T11:30:42.147Z,0.20
2023-01-06T11:33:20.632Z,0.23
2023-01-06T11:35:47.997Z,0.40
2023-01-06T11:38:16.830Z,0.87
2023-01-06T11:40:46.719Z,0.40
2023-01-06T11:43:16.139Z,0.20
2023-01-06T11:45:57.482Z,0.30
2023-01-06T11:48:31.127Z,0.40
2023-01-06T11:51:04.017Z,0.30
2023-01-06T11:53:31.377Z,0.30
2023-01-06T11:56:04.363Z,0.30
2023-01-06T11:58:57.033Z,0.20
2023-01-06T12:01:46.914Z,0.30
2023-01-06T12:04:41.955Z,0.90
2023-01-06T12:07:34.075Z,0.40
2023-01-06T12:10:06.906Z,0.27
2023-01-06T12:12:33.326Z,0.40
2023-01-06T12:15:00.940Z,0.30
2023-01-06T12:17:40.730Z,0.30
2023-01-06T12:20:20.501Z,0.40
2023-01-06T12:22:49.022Z,0.30
2023-01-06T12:25:21.505Z,0.40
2023-01-06T12:28:04.992Z,0.30
2023-01-06T12:30:45.997Z,0.30
2023-01-06T12:33:39.389Z,0.40
2023-01-06T12:36:35.001Z,2.00
2023-01-06T12:39:30.062Z,0.30
2023-01-06T12:42:10.607Z,0.20
2023-01-06T12:44:49.477Z,0.93
2023-01-06T12:47:24.208Z,0.40
2023-01-06T12:50:02.077Z,0.30
2023-01-06T12:52:35.930Z,0.20
2023-01-06T12:55:02.921Z,0.27
2023-01-06T12:57:53.756Z,0.30
2023-01-06T13:00:30.826Z,0.20
2023-01-06T13:03:17.858Z,0.77
2023-01-06T13:05:50.553Z,0.30
2023-01-06T13:08:37.956Z,0.20
2023-01-06T13:11:23.751Z,0.60
2023-01-06T13:14:06.573Z,0.27
2023-01-06T13:16:39.137Z,0.20
2023-01-06T13:19:50.410Z,0.47
2023-01-06T13:22:55.563Z,0.30
2023-01-06T13:25:46.661Z,0.30
2023-01-06T13:28:35.774Z,0.23
2023-01-06T13:31:23.168Z,0.40
2023-01-06T13:34:26.734Z,0.20
2023-01-06T13:37:12.943Z,0.30
2023-01-06T13:39:44.459Z,0.30
2023-01-06T13:42:16.414Z,0.30
2023-01-06T13:44:45.175Z,0.20
2023-01-06T13:47:16.691Z,0.30
2023-01-06T13:49:43.279Z,0.40
2023-01-06T13:52:21.860Z,0.40
2023-01-06T13:54:48.243Z,0.40
2023-01-06T13:57:20.456Z,0.30
2023-01-06T14:00:14.312Z,0.40
2023-01-06T14:02:42.649Z,0.20
2023-01-06T14:05:22.456Z,0.30
2023-01-06T14:07:55.005Z,0.30
2023-01-06T14:10:38.201Z,0.30
2023-01-06T14:13:17.711Z,0.30
2023-01-06T14:15:56.309Z,0.30
2023-01-06T14:18:40.004Z,0.27
2023-01-06T14:21:12.633Z,0.30
2023-01-06T14:23:50.356Z,0.40
2023-01-06T14:26:16.853Z,0.40
2023-01-06T14:28:43.211Z,0.30
2023-01-06T14:31:31.447Z,0.30
2023-01-06T14:33:59.983Z,0.30
2023-01-06T14:36:29.338Z,0.30
2023-01-06T14:39:03.066Z,0.30
2023-01-06T14:41:35.142Z,0.30
2023-01-06T14:44:24.787Z,0.30
2023-01-06T14:47:04.711Z,0.30
2023-01-06T14:49:40.238Z,0.30
2023-01-06T14:52:15.951Z,0.40
2023-01-06T14:54:45.491Z,0.30
2023-01-06T14:57:34.981Z,0.87
2023-01-06T15:00:27.078Z,0.30
2023-01-06T15:02:55.928Z,0.40
2023-01-06T15:05:37.005Z,0.30
2023-01-06T15:08:09.246Z,0.33
2023-01-06T15:10:39.108Z,0.40
2023-01-06T15:13:21.306Z,0.40
2023-01-06T15:16:01.642Z,0.40
2023-01-06T15:18:28.206Z,0.30
2023-01-06T15:20:55.271Z,0.30
2023-01-06T15:23:22.135Z,0.30
2023-01-06T15:25:51.169Z,0.40
2023-01-06T15:28:31.219Z,0.30
2023-01-06T15:30:59.205Z,0.30
2023-01-06T15:33:36.433Z,0.30
2023-01-06T15:36:03.511Z,0.30
2023-01-06T15:38:34.116Z,0.20
2023-01-06T15:41:05.500Z,0.20
2023-01-06T15:43:43.488Z,0.40
2023-01-06T15:46:12.681Z,0.40
2023-01-06T15:48:46.864Z,0.30
2023-01-06T15:51:17.383Z,0.23
2023-01-06T15:53:44.562Z,0.30
2023-01-06T15:56:22.963Z,0.30
2023-01-06T15:58:52.562Z,0.30
2023-01-06T16:01:21.820Z,0.20
2023-01-06T16:03:58.312Z,0.33
2023-01-06T16:06:37.255Z,0.20
2023-01-06T16:09:18.839Z,0.40
2023-01-06T16:12:21.067Z,0.30
2023-01-06T16:14:49.224Z,0.40
2023-01-06T16:17:25.104Z,0.20
2023-01-06T16:19:59.999Z,0.30
2023-01-06T16:22:43.450Z,0.20
2023-01-06T16:25:28.377Z,0.30
2023-01-06T16:27:57.950Z,0.40
2023-01-06T16:30:28.810Z,0.20
2023-01-06T16:32:57.243Z,0.30
2023-01-06T16:35:26.011Z,0.63
2023-01-06T16:37:52.611Z,0.30
2023-01-06T16:40:20.598Z,0.50
2023-01-06T16:42:47.998Z,0.27
2023-01-06T16:45:19.924Z,0.43
2023-01-06T16:47:46.544Z,0.60
2023-01-06T16:50:19.137Z,0.33
2023-01-06T16:52:48.272Z,0.30
2023-01-06T16:55:16.876Z,0.30
2023-01-06T16:57:47.710Z,0.40
2023-01-06T17:00:16.996Z,0.30
2023-01-06T17:02:43.845Z,0.40
2023-01-06T17:05:30.728Z,0.40
2023-01-06T17:08:00.771Z,0.30
2023-01-06T17:10:27.827Z,0.33
2023-01-06T17:13:20.486Z,0.60
2023-01-06T17:15:51.529Z,0.40
2023-01-06T17:18:27.013Z,0.80
2023-01-06T17:21:00.055Z,0.83
2023-01-06T17:23:26.419Z,3.77
2023-01-06T17:26:01.527Z,0.77
2023-01-06T17:28:28.415Z,0.57
2023-01-06T17:30:54.792Z,0.50
2023-01-06T17:33:21.247Z,0.30
2023-01-06T17:35:53.262Z,0.20
2023-01-06T17:38:23.394Z,0.40
2023-01-06T17:40:51.290Z,0.40
2023-01-06T17:43:36.913Z,0.30
2023-01-06T17:46:18.805Z,0.40
2023-01-06T17:48:45.325Z,0.40
2023-01-06T17:51:12.930Z,0.33
2023-01-06T17:53:57.984Z,0.30
2023-01-06T17:56:25.948Z,0.50
2023-01-06T17:58:52.346Z,0.60
2023-01-06T18:01:28.157Z,0.60
2023-01-06T18:03:57.050Z,0.33
2023-01-06T18:06:27.799Z,0.40
2023-01-06T18:09:00.608Z,0.30
2023-01-06T18:11:34.200Z,0.83
2023-01-06T18:14:15.540Z,0.83
2023-01-06T18:16:45.351Z,0.30
2023-01-06T18:19:25.640Z,0.40
2023-01-06T18:21:52.585Z,0.30
2023-01-06T18:24:40.606Z,0.40
2023-01-06T18:27:16.958Z,0.40
2023-01-06T18:29:44.636Z,0.40
2023-01-06T18:32:36.063Z,0.93
2023-01-06T18:35:09.301Z,0.60
2023-01-06T18:37:35.806Z,0.70
2023-01-06T18:40:26.746Z,1.00
2023-01-06T18:42:54.889Z,0.83
2023-01-06T18:45:25.214Z,0.90
2023-01-06T18:47:55.583Z,0.63
2023-01-06T18:50:33.124Z,0.40
2023-01-06T18:53:02.356Z,0.53
2023-01-06T18:55:41.177Z,0.77
2023-01-06T18:58:32.520Z,0.87
2023-01-06T19:01:02.165Z,0.60
2023-01-06T19:03:36.816Z,0.87
2023-01-06T19:06:09.342Z,1.40
2023-01-06T19:08:38.290Z,0.70
2023-01-06T19:11:13.417Z,0.70
2023-01-06T19:13:39.887Z,0.70
2023-01-06T19:16:26.244Z,0.60
2023-01-06T19:18:53.045Z,1.00
2023-01-06T19:21:22.457Z,0.40
2023-01-06T19:23:49.029Z,1.00
2023-01-06T19:26:31.706Z,0.40
2023-01-06T19:29:02.862Z,0.30
2023-01-06T19:31:30.571Z,0.50
2023-01-06T19:33:59.863Z,0.40
2023-01-06T19:36:47.853Z,0.97
2023-01-06T19:39:39.642Z,0.50
2023-01-06T19:42:16.586Z,0.60
2023-01-06T19:44:43.398Z,0.63
2023-01-06T19:47:23.616Z,0.97
2023-01-06T19:49:55.657Z,0.80
2023-01-06T19:52:37.838Z,0.80
2023-01-06T19:55:16.449Z,0.80
2023-01-06T19:57:48.352Z,0.53
2023-01-06T20:00:40.914Z,0.97
2023-01-06T20:03:27.184Z,1.73
2023-01-06T20:05:53.713Z,1.87
2023-01-06T20:08:20.271Z,0.40
2023-01-06T20:10:46.617Z,0.70
2023-01-06T20:13:13.123Z,0.80
2023-01-06T20:15:39.610Z,0.80
2023-01-06T20:18:06.030Z,1.30
2023-01-06T20:20:32.483Z,1.30
2023-01-06T20:22:58.867Z,1.83
2023-01-06T20:25:25.215Z,1.10
2023-01-06T20:27:51.744Z,0.60
2023-01-06T20:30:18.306Z,0.70
2023-01-06T20:32:44.800Z,0.60
2023-01-06T20:35:12.058Z,0.97
2023-01-06T20:37:39.599Z,0.57
2023-01-06T20:40:07.094Z,1.43
2023-01-06T20:42:33.514Z,0.50
2023-01-06T20:44:59.997Z,0.90
2023-01-06T20:47:26.353Z,0.80
2023-01-06T20:49:52.806Z,0.63
2023-01-06T20:52:19.305Z,0.87
2023-01-06T20:54:45.774Z,1.10
2023-01-06T20:57:12.135Z,0.70
2023-01-06T20:59:38.539Z,1.17
2023-01-06T21:02:05.221Z,0.40
2023-01-06T21:04:34.278Z,0.77
2023-01-06T21:07:00.885Z,0.70
2023-01-06T21:09:29.199Z,0.83
2023-01-06T21:11:56.240Z,0.73
2023-01-06T21:14:22.783Z,0.77
2023-01-06T21:16:49.873Z,1.70
2023-01-06T21:19:16.369Z,1.47
2023-01-06T21:21:43.242Z,1.20
2023-01-06T21:24:09.674Z,1.80
2023-01-06T21:26:36.110Z,1.83
2023-01-06T21:29:02.565Z,1.67
2023-01-06T21:31:29.040Z,4.80
2023-01-06T21:33:55.460Z,2.70
2023-01-06T21:36:21.851Z,1.30
2023-01-06T21:38:48.244Z,2.03
2023-01-06T21:41:33.345Z,2.63
2023-01-06T21:43:59.766Z,2.20
2023-01-06T21:46:26.339Z,3.00
2023-01-06T21:48:52.777Z,1.30
2023-01-06T21:51:19.579Z,1.67
2023-01-06T21:53:46.485Z,1.10
2023-01-06T21:56:12.986Z,1.00
2023-01-06T21:58:39.380Z,1.23
2023-01-06T22:01:06.404Z,1.40
2023-01-06T22:03:32.949Z,1.37
2023-01-06T22:06:01.478Z,2.33
2023-01-06T22:08:30.482Z,1.60
2023-01-06T22:10:57.005Z,1.07
2023-01-06T22:13:23.755Z,1.60
2023-01-06T22:15:50.890Z,0.90
2023-01-06T22:18:18.661Z,1.17
2023-01-06T22:20:45.975Z,1.67
2023-01-06T22:23:18.113Z,2.03
2023-01-06T22:25:44.772Z,1.10
2023-01-06T22:28:12.211Z,1.47
2023-01-06T22:30:38.687Z,1.10
2023-01-06T22:33:05.223Z,1.10
2023-01-06T22:35:31.718Z,7.43
2023-01-06T22:37:59.105Z,1.73
2023-01-06T22:40:26.287Z,3.30
2023-01-06T22:42:52.752Z,2.67
2023-01-06T22:45:19.337Z,4.73
2023-01-06T22:47:45.699Z,3.67
2023-01-06T22:50:12.983Z,1.80
2023-01-06T22:52:39.397Z,4.10
2023-01-06T22:55:06.338Z,6.40
2023-01-06T22:57:32.787Z,3.70
2023-01-06T23:00:00.065Z,1.60
2023-01-06T23:02:26.679Z,2.53
2023-01-06T23:04:53.206Z,0.90
2023-01-06T23:07:19.683Z,2.30
2023-01-06T23:09:46.098Z,1.20
2023-01-06T23:12:12.478Z,1.73
2023-01-06T23:14:38.827Z,0.73
2023-01-06T23:17:05.336Z,0.97
2023-01-06T23:19:31.762Z,1.37
2023-01-06T23:21:58.150Z,1.37
2023-01-06T23:24:24.656Z,0.63
2023-01-06T23:26:51.075Z,0.60
2023-01-06T23:29:17.452Z,0.70
2023-01-06T23:31:45.760Z,0.83
2023-01-06T23:34:17.491Z,0.80
2023-01-06T23:36:44.572Z,0.33
2023-01-06T23:39:13.360Z,0.67
2023-01-06T23:41:40.326Z,0.77
2023-01-06T23:44:07.363Z,0.90
2023-01-06T23:46:39.230Z,0.60
2023-01-06T23:49:06.719Z,0.70
2023-01-06T23:51:34.055Z,0.60
2023-01-06T23:54:02.510Z,0.67
2023-01-06T23:56:30.877Z,0.40
2023-01-06T23:59:00.802Z,0.50
